Time;durP1;ratioP1;P1;durP2;ratioP2;P2;SDS_P1;SDS_P2;PMS_P1;PMS_P2;Temp;Humidity;BMP_temperature;BMP_pressure;BME280_temperature;BME280_humidity;BME280_pressure;Samples;Min_cycle;Max_cycle;Signal;HPM_P1;HPM_P2
2023/07/12 00:00:48;;;;;;;;;;;;;;;27.52;37.07;100167.64;2235472;78;50241;-73
2023/07/12 00:03:50;;;;;;;;;;;;;;;27.51;37.04;100163.30;2269266;78;51535;-73
2023/07/12 00:06:52;;;;;;;;;;;;;;;27.52;37.04;100165.47;2232416;78;49623;-74
2023/07/12 00:09:53;;;;;;;;;;;;;;;27.51;37.00;100157.86;2278882;76;51571;-73
2023/07/12 00:12:55;;;;;;;;;;;;;;;27.50;36.99;100160.27;2244421;78;51491;-74
2023/07/12 00:15:57;;;;;;;;;;;;;;;27.52;37.03;100170.36;2280864;78;50309;-73
2023/07/12 00:18:59;;;;;;;;;;;;;;;27.52;37.07;100177.70;2259196;77;51021;-73
2023/07/12 00:22:00;;;;;;;;;;;;;;;27.52;37.11;100170.36;2259295;78;51570;-73
2023/07/12 00:25:02;;;;;;;;;;;;;;;27.52;37.03;100169.55;2259671;78;51605;-73
2023/07/12 00:28:05;;;;;;;;;;;;;;;27.53;37.11;100169.27;2259448;78;49980;-73
2023/07/12 00:31:08;;;;;;;;;;;;;;;27.50;37.07;100156.20;2256570;77;49666;-72
2023/07/12 00:34:09;;;;;;;;;;;;;;;27.51;37.14;100150.22;2282950;76;51577;-75
2023/07/12 00:37:13;;;;;;;;;;;;;;;27.52;37.05;100149.98;2297479;76;51525;-72
2023/07/12 00:40:18;;;;;;;;;;;;;;;27.51;37.14;100145.63;2256270;76;51504;-77
2023/07/12 00:43:21;;;;;;;;;;;;;;;27.52;37.24;100135.57;2210013;78;52507;-77
2023/07/12 00:46:34;;;;;;;;;;;;;;;27.52;37.27;100131.50;2259176;78;50480;-77
2023/07/12 00:49:35;;;;;;;;;;;;;;;27.53;37.41;100125.79;2281028;78;51380;-76
2023/07/12 00:52:37;;;;;;;;;;;;;;;27.56;37.44;100113.59;2259667;78;51706;-75
2023/07/12 00:55:55;;;;;;;;;;;;;;;27.57;37.42;100091.60;2259667;78;52709;-76
2023/07/12 00:58:59;;;;;;;;;;;;;;;27.57;37.47;100091.60;2280179;78;50798;-75
2023/07/12 01:02:01;;;;;;;;;;;;;;;27.58;37.49;100076.11;2280917;78;51467;-74
2023/07/12 01:05:03;;;;;;;;;;;;;;;27.58;37.54;100066.05;2281045;78;51549;-76
2023/07/12 01:08:05;;;;;;;;;;;;;;;27.58;37.53;100060.61;2259473;77;49991;-75
2023/07/12 01:11:06;;;;;;;;;;;;;;;27.57;37.56;100049.47;2255405;78;50367;-76
2023/07/12 01:14:12;;;;;;;;;;;;;;;27.59;37.59;100039.69;2270685;77;52386;-75
2023/07/12 01:17:13;;;;;;;;;;;;;;;27.58;37.62;100033.44;2279023;78;51385;-76
2023/07/12 01:20:15;;;;;;;;;;;;;;;27.60;37.65;100023.68;2233563;78;50085;-76
2023/07/12 01:23:17;;;;;;;;;;;;;;;27.60;37.67;100020.15;2279228;78;51584;-76
2023/07/12 01:26:25;;;;;;;;;;;;;;;27.62;37.69;100013.89;2279123;78;51605;-77
2023/07/12 01:29:27;;;;;;;;;;;;;;;27.61;37.72;100017.70;2279725;78;51482;-77
2023/07/12 01:32:28;;;;;;;;;;;;;;;27.61;37.78;100010.91;2258219;78;52720;-77
2023/07/12 01:35:30;;;;;;;;;;;;;;;27.62;37.78;100004.38;2279624;78;50594;-76
2023/07/12 01:38:32;;;;;;;;;;;;;;;27.61;37.78;99994.05;2279017;78;50665;-76
2023/07/12 01:41:33;;;;;;;;;;;;;;;27.62;37.83;99983.99;2258384;78;51516;-76
2023/07/12 01:44:35;;;;;;;;;;;;;;;27.62;37.88;99983.99;2247666;78;51489;-77
2023/07/12 01:47:36;;;;;;;;;;;;;;;27.63;37.89;99971.52;2243628;79;51569;-77
2023/07/12 01:50:38;;;;;;;;;;;;;;;27.62;37.92;99964.97;2243711;79;51479;-75
2023/07/12 01:53:40;;;;;;;;;;;;;;;27.62;37.97;99967.17;2243687;79;51506;-76
2023/07/12 01:56:42;;;;;;;;;;;;;;;27.63;37.99;99962.00;2233791;79;49735;-75
2023/07/12 01:59:44;;;;;;;;;;;;;;;27.63;37.99;99950.31;2234307;79;50271;-76
2023/07/12 02:02:45;;;;;;;;;;;;;;;27.63;37.99;99943.52;2234626;79;50732;-75
2023/07/12 02:05:47;;;;;;;;;;;;;;;27.63;38.00;99947.60;2243977;79;50614;-76
2023/07/12 02:08:48;;;;;;;;;;;;;;;27.62;38.03;99935.92;2210157;79;53461;-77
2023/07/12 02:11:50;;;;;;;;;;;;;;;27.63;38.07;99922.59;2246774;76;50711;-75
2023/07/12 02:14:52;;;;;;;;;;;;;;;27.63;38.09;99917.16;2223301;78;53422;-75
2023/07/12 02:17:53;;;;;;;;;;;;;;;27.64;38.13;99919.33;2244107;79;51305;-76
2023/07/12 02:20:55;;;;;;;;;;;;;;;27.64;38.16;99907.10;2222593;79;50235;-75
2023/07/12 02:23:56;;;;;;;;;;;;;;;27.63;38.16;99900.04;2244068;77;50380;-75
2023/07/12 02:26:58;;;;;;;;;;;;;;;27.63;38.20;99890.53;2243843;79;51448;-76
2023/07/12 02:29:59;;;;;;;;;;;;;;;27.63;38.26;99894.60;2244070;79;50728;-76
2023/07/12 02:33:01;;;;;;;;;;;;;;;27.62;38.26;99897.02;2221409;79;50917;-75
2023/07/12 02:36:03;;;;;;;;;;;;;;;27.62;38.25;99891.59;2246206;79;50460;-76
2023/07/12 02:39:04;;;;;;;;;;;;;;;27.62;38.26;99887.00;2246008;77;50689;-76
2023/07/12 02:42:06;;;;;;;;;;;;;;;27.62;38.29;99883.44;2264183;77;51362;-75
2023/07/12 02:45:08;;;;;;;;;;;;;;;27.62;38.29;99873.92;2210209;79;52502;-76
2023/07/12 02:48:11;;;;;;;;;;;;;;;27.61;38.30;99866.31;2234619;79;50544;-75
2023/07/12 02:51:12;;;;;;;;;;;;;;;27.62;38.32;99865.77;2234350;79;51360;-74
2023/07/12 02:54:14;;;;;;;;;;;;;;;27.61;38.28;99866.31;2243799;78;51394;-75
2023/07/12 02:57:16;;;;;;;;;;;;;;;27.62;38.28;99856.26;2234006;79;51038;-76
2023/07/12 03:00:18;;;;;;;;;;;;;;;27.61;38.33;99866.31;2243957;78;51527;-76
2023/07/12 03:03:19;;;;;;;;;;;;;;;27.61;38.36;99875.83;2234524;79;50467;-75
2023/07/12 03:06:22;;;;;;;;;;;;;;;27.61;38.35;99893.49;2243681;79;51385;-76
2023/07/12 03:09:23;;;;;;;;;;;;;;;27.62;38.40;99892.95;2234404;79;51598;-76
2023/07/12 03:12:25;;;;;;;;;;;;;;;27.62;38.39;99882.08;2238447;78;51419;-76
2023/07/12 03:15:26;;;;;;;;;;;;;;;27.62;38.44;99884.80;2234672;79;50653;-75
2023/07/12 03:18:28;;;;;;;;;;;;;;;27.63;38.41;99881.02;2234187;79;50719;-75
2023/07/12 03:21:30;;;;;;;;;;;;;;;27.62;38.44;99890.23;2234529;79;51093;-75
2023/07/12 03:24:31;;;;;;;;;;;;;;;27.63;38.47;99875.58;2243992;79;50760;-75
2023/07/12 03:27:33;;;;;;;;;;;;;;;27.62;38.47;99880.20;2234585;79;50554;-76
2023/07/12 03:30:35;;;;;;;;;;;;;;;27.63;38.49;99880.47;2234822;79;51615;-76
2023/07/12 03:33:36;;;;;;;;;;;;;;;27.62;38.50;99873.41;2234781;79;52373;-76
2023/07/12 03:36:39;;;;;;;;;;;;;;;27.63;38.54;99878.30;2234469;79;51410;-75
2023/07/12 03:39:41;;;;;;;;;;;;;;;27.63;38.53;99867.42;2244216;78;51563;-76
2023/07/12 03:42:42;;;;;;;;;;;;;;;27.62;38.53;99869.33;2264406;78;50009;-76
2023/07/12 03:45:44;;;;;;;;;;;;;;;27.63;38.59;99875.58;2260252;78;51147;-76
2023/07/12 03:48:45;;;;;;;;;;;;;;;27.64;38.63;99867.69;2260163;78;51495;-77
2023/07/12 03:51:47;;;;;;;;;;;;;;;27.64;38.62;99867.69;2281574;78;51565;-76
2023/07/12 03:54:49;;;;;;;;;;;;;;;27.65;38.65;99857.12;2281831;78;50745;-76
2023/07/12 03:57:51;;;;;;;;;;;;;;;27.64;38.65;99858.99;2281474;78;51402;-76
2023/07/12 04:00:52;;;;;;;;;;;;;;;27.65;38.66;99865.27;2260416;78;50360;-78
2023/07/12 04:03:54;;;;;;;;;;;;;;;27.64;38.67;99856.82;2281796;78;50500;-76
2023/07/12 04:06:56;;;;;;;;;;;;;;;27.64;38.69;99864.42;2281561;78;50779;-77
2023/07/12 04:09:57;;;;;;;;;;;;;;;27.64;38.69;99866.33;2235360;78;51249;-76
2023/07/12 04:12:59;;;;;;;;;;;;;;;27.64;38.70;99858.99;2237092;78;50107;-77
2023/07/12 04:16:01;;;;;;;;;;;;;;;27.64;38.71;99856.82;2244951;79;50618;-76
2023/07/12 04:19:02;;;;;;;;;;;;;;;27.62;38.73;99854.38;2244946;77;50618;-74
2023/07/12 04:22:04;;;;;;;;;;;;;;;27.65;38.81;99855.76;2266744;76;52441;-75
2023/07/12 04:25:08;;;;;;;;;;;;;;;27.62;38.62;99848.11;2296602;76;51573;-74
2023/07/12 04:28:09;;;;;;;;;;;;;;;27.60;38.71;99837.52;2328475;76;50789;-76
2023/07/12 04:31:11;;;;;;;;;;;;;;;27.59;38.76;99837.22;2328745;76;50383;-75
2023/07/12 04:34:13;;;;;;;;;;;;;;;27.57;38.75;99838.86;2328764;76;50744;-75
2023/07/12 04:37:14;;;;;;;;;;;;;;;27.57;38.71;99838.86;2328597;76;51424;-75
2023/07/12 04:40:17;;;;;;;;;;;;;;;27.56;38.78;99845.36;2326816;76;51392;-76
2023/07/12 04:43:18;;;;;;;;;;;;;;;27.55;39.01;99845.09;2264898;78;50157;-74
2023/07/12 04:46:20;;;;;;;;;;;;;;;27.53;38.90;99851.33;2234659;78;52313;-75
2023/07/12 04:49:26;;;;;;;;;;;;;;;27.54;38.95;99859.77;2280009;76;50359;-76
2023/07/12 04:52:25;;;;;;;;;;;;;;;27.54;39.17;99865.20;2249475;78;22391;-76
2023/07/12 04:55:26;;;;;;;;;;;;;;;27.50;39.17;99873.59;2249333;78;50099;-78
2023/07/12 04:58:28;;;;;;;;;;;;;;;27.52;39.09;99887.74;2268151;77;50404;-76
2023/07/12 05:01:31;;;;;;;;;;;;;;;27.52;39.13;99886.92;2242450;78;49987;-76
2023/07/12 05:04:33;;;;;;;;;;;;;;;27.48;39.31;99887.97;2260574;78;51494;-77
2023/07/12 05:07:36;;;;;;;;;;;;;;;27.49;39.23;99882.84;2234889;78;51397;-77
2023/07/12 05:10:37;;;;;;;;;;;;;;;27.52;39.32;99889.09;2235316;76;51321;-77
2023/07/12 05:13:39;;;;;;;;;;;;;;;27.51;39.42;99887.47;2253063;76;51900;-76
2023/07/12 05:16:40;;;;;;;;;;;;;;;27.51;39.50;99892.91;2265867;78;51410;-76
2023/07/12 05:19:42;;;;;;;;;;;;;;;27.52;39.46;99892.36;2276428;78;51405;-76
2023/07/12 05:22:44;;;;;;;;;;;;;;;27.51;39.72;99894.27;2279084;78;52207;-76
2023/07/12 05:25:50;;;;;;;;;;;;;;;27.51;39.49;99891.55;2279165;78;50393;-75
2023/07/12 05:28:52;;;;;;;;;;;;;;;27.52;39.35;99891.81;2278984;78;50073;-75
2023/07/12 05:31:54;;;;;;;;;;;;;;;27.52;39.32;99893.17;2279288;78;51482;-76
2023/07/12 05:34:56;;;;;;;;;;;;;;;27.52;39.35;99898.61;2257524;78;52503;-76
2023/07/12 05:37:57;;;;;;;;;;;;;;;27.52;39.36;99898.61;2278938;78;51465;-76
2023/07/12 05:40:59;;;;;;;;;;;;;;;27.53;39.24;99904.86;2273690;78;51449;-76
2023/07/12 05:44:01;;;;;;;;;;;;;;;27.53;39.38;99921.16;2267439;78;51478;-75
2023/07/12 05:47:02;;;;;;;;;;;;;;;27.52;39.29;99917.63;2257807;78;50729;-75
2023/07/12 05:50:05;;;;;;;;;;;;;;;27.55;39.37;99928.52;2258058;78;51468;-76
2023/07/12 05:53:08;;;;;;;;;;;;;;;27.57;40.92;99932.62;2279593;78;50667;-74
2023/07/12 05:56:10;;;;;;;;;;;;;;;27.42;41.91;99939.29;2279541;78;51494;-74
2023/07/12 05:59:11;;;;;;;;;;;;;;;27.28;42.65;99948.94;2258004;78;52402;-73
2023/07/12 06:02:14;;;;;;;;;;;;;;;27.16;42.80;99950.45;2258161;78;51556;-76
2023/07/12 06:05:16;;;;;;;;;;;;;;;27.12;43.36;99948.77;2279988;76;49848;-75
2023/07/12 06:08:18;;;;;;;;;;;;;;;27.08;43.62;99953.09;2259884;78;51699;-76
2023/07/12 06:11:20;;;;;;;;;;;;;;;27.02;43.79;99954.09;2273807;76;50369;-76
2023/07/12 06:14:21;;;;;;;;;;;;;;;27.00;43.99;99954.91;2233851;78;51605;-76
2023/07/12 06:17:23;;;;;;;;;;;;;;;27.03;44.32;99964.44;2243557;78;50281;-75
2023/07/12 06:20:24;;;;;;;;;;;;;;;26.89;44.53;99961.30;2243767;78;50518;-75
2023/07/12 06:23:26;;;;;;;;;;;;;;;26.91;44.49;99965.94;2243775;79;50731;-76
2023/07/12 06:26:28;;;;;;;;;;;;;;;26.98;44.41;99973.89;2222632;79;51168;-75
2023/07/12 06:29:30;;;;;;;;;;;;;;;26.93;44.71;99971.94;2222489;79;50301;-76
2023/07/12 06:32:31;;;;;;;;;;;;;;;26.95;45.02;99990.16;2244134;78;50349;-72
2023/07/12 06:35:33;;;;;;;;;;;;;;;26.92;45.42;99986.56;2257277;77;50309;-77
2023/07/12 06:38:34;;;;;;;;;;;;;;;27.01;44.69;99986.41;2259322;78;51249;-76
2023/07/12 06:41:36;;;;;;;;;;;;;;;27.18;44.34;99978.20;2237419;77;51577;-76
2023/07/12 06:44:38;;;;;;;;;;;;;;;27.38;44.57;99981.62;2261965;76;51490;-77
2023/07/12 06:47:39;;;;;;;;;;;;;;;27.57;44.50;99980.17;2269199;78;51432;-76
2023/07/12 06:50:41;;;;;;;;;;;;;;;27.69;44.80;99974.54;2257658;78;52693;-75
2023/07/12 06:53:42;;;;;;;;;;;;;;;27.80;44.78;99986.34;2279220;78;51567;-76
2023/07/12 06:56:46;;;;;;;;;;;;;;;27.64;45.56;99980.48;2279072;78;51271;-79
2023/07/12 06:59:47;;;;;;;;;;;;;;;27.64;45.97;99977.22;2279553;78;24914;-76
2023/07/12 07:02:49;;;;;;;;;;;;;;;27.58;46.21;99991.86;2279196;78;52298;-77
2023/07/12 07:05:50;;;;;;;;;;;;;;;27.66;46.17;99992.73;2257673;78;51366;-78
2023/07/12 07:08:52;;;;;;;;;;;;;;;27.79;46.19;99999.63;2257635;78;52416;-75
2023/07/12 07:11:53;;;;;;;;;;;;;;;27.85;46.29;100008.16;2279652;76;50141;-76
2023/07/12 07:14:55;;;;;;;;;;;;;;;27.68;46.82;100018.31;2237779;78;51165;-77
2023/07/12 07:17:57;;;;;;;;;;;;;;;27.67;46.91;100016.14;2235577;79;50635;-76
2023/07/12 07:20:59;;;;;;;;;;;;;;;27.65;47.40;100031.88;2243915;79;51444;-77
2023/07/12 07:24:02;;;;;;;;;;;;;;;27.65;47.53;100037.31;2243828;79;51422;-76
2023/07/12 07:27:03;;;;;;;;;;;;;;;27.54;47.52;100041.84;2230600;79;50651;-74
2023/07/12 07:30:07;;;;;;;;;;;;;;;27.36;48.28;100056.61;2230426;79;50060;-75
2023/07/12 07:33:08;;;;;;;;;;;;;;;27.43;47.80;100063.19;2265339;76;50420;-75
2023/07/12 07:36:11;;;;;;;;;;;;;;;27.36;47.79;100053.08;2274970;76;50360;-76
2023/07/12 07:39:13;;;;;;;;;;;;;;;27.43;47.55;100051.50;2235374;77;51198;-76
2023/07/12 07:42:15;;;;;;;;;;;;;;;27.47;47.58;100053.45;2280337;76;50562;-76
2023/07/12 07:45:16;;;;;;;;;;;;;;;27.57;47.16;100052.73;2274477;76;50263;-74
2023/07/12 07:48:18;;;;;;;;;;;;;;;27.58;47.03;100067.95;2275356;78;51613;-76
2023/07/12 07:51:20;;;;;;;;;;;;;;;27.57;46.76;100064.42;2257632;78;51735;-74
2023/07/12 07:54:22;;;;;;;;;;;;;;;27.54;46.37;100065.45;2232986;78;50079;-75
2023/07/12 07:57:23;;;;;;;;;;;;;;;27.57;46.12;100073.94;2257229;78;50381;-75
2023/07/12 08:00:25;;;;;;;;;;;;;;;27.68;45.75;100075.39;2257531;78;50744;-75
2023/07/12 08:03:26;;;;;;;;;;;;;;;27.73;45.52;100079.52;2257220;78;51450;-76
2023/07/12 08:06:28;;;;;;;;;;;;;;;27.72;45.41;100082.78;2257360;78;50201;-75
2023/07/12 08:09:30;;;;;;;;;;;;;;;27.83;44.90;100074.20;2279232;78;51542;-76
2023/07/12 08:12:31;;;;;;;;;;;;;;;27.66;44.89;100082.98;2279222;78;50332;-77
2023/07/12 08:15:33;;;;;;;;;;;;;;;27.61;44.93;100096.52;2240754;78;50605;-77
2023/07/12 08:18:38;;;;;;;;;;;;;;;27.58;45.04;100106.81;2278309;78;51585;-74
2023/07/12 08:21:38;;;;;;;;;;;;;;;27.65;44.84;100103.09;2279507;78;22506;-74
2023/07/12 08:24:40;;;;;;;;;;;;;;;27.63;44.88;100101.16;2279087;78;50637;-74
2023/07/12 08:27:42;;;;;;;;;;;;;;;27.68;44.68;100100.67;2257499;78;51218;-74
2023/07/12 08:30:43;;;;;;;;;;;;;;;27.67;44.72;100121.30;2257661;78;51641;-75
2023/07/12 08:33:46;;;;;;;;;;;;;;;27.70;44.44;100123.53;2279147;78;50250;-75
2023/07/12 08:36:48;;;;;;;;;;;;;;;27.62;44.17;100119.89;2257332;78;50408;-77
2023/07/12 08:39:49;;;;;;;;;;;;;;;27.54;44.22;100109.78;2257459;78;51536;-74
2023/07/12 08:42:51;;;;;;;;;;;;;;;27.54;45.22;100115.73;2257029;78;51450;-74
2023/07/12 08:45:53;;;;;;;;;;;;;;;27.58;45.23;100125.84;2268401;78;51696;-75
2023/07/12 08:48:55;;;;;;;;;;;;;;;27.65;44.72;100116.14;2252883;76;50763;-75
2023/07/12 08:51:58;;;;;;;;;;;;;;;27.65;44.88;100111.25;2250361;76;52427;-75
2023/07/12 08:55:00;;;;;;;;;;;;;;;27.67;45.40;100117.22;2263057;76;50327;-74
2023/07/12 08:58:03;;;;;;;;;;;;;;;27.68;44.64;100129.75;2243322;77;51421;-76
2023/07/12 09:01:07;;;;;;;;;;;;;;;27.71;44.52;100131.41;2257782;76;50831;-76
2023/07/12 09:04:22;;;;;;;;;;;;;;;27.69;44.65;100130.84;2250734;78;50112;-76
2023/07/12 09:07:25;;;;;;;;;;;;;;;27.72;44.57;100129.50;2247212;78;50812;-77
2023/07/12 09:10:45;;;;;;;;;;;;;;;27.78;44.37;100138.02;2264311;76;51415;-75
2023/07/12 09:13:47;;;;;;;;;;;;;;;27.75;44.70;100128.47;2300622;76;50308;-76
2023/07/12 09:16:51;;;;;;;;;;;;;;;27.79;44.45;100139.64;2285965;76;51485;-75
2023/07/12 09:19:53;;;;;;;;;;;;;;;27.81;44.41;100136.16;2274673;76;51462;-76
2023/07/12 09:22:55;;;;;;;;;;;;;;;27.85;44.32;100145.97;2249336;77;50203;-76
2023/07/12 09:25:56;;;;;;;;;;;;;;;27.91;44.18;100155.84;2254661;78;51813;-76
2023/07/12 09:28:59;;;;;;;;;;;;;;;27.66;44.62;100160.44;2253910;78;52359;-77
2023/07/12 09:32:00;;;;;;;;;;;;;;;27.46;44.92;100170.03;2241883;78;50049;-76
2023/07/12 09:35:07;;;;;;;;;;;;;;;27.11;45.53;100160.32;2268295;78;51663;-75
2023/07/12 09:38:10;;;;;;;;;;;;;;;27.32;45.10;100153.81;2255111;78;50803;-76
2023/07/12 09:41:13;;;;;;;;;;;;;;;27.49;44.77;100153.21;2248881;78;52422;-76
2023/07/12 09:44:15;;;;;;;;;;;;;;;27.60;44.56;100145.98;2269341;78;50700;-75
2023/07/12 09:47:34;;;;;;;;;;;;;;;27.67;44.44;100138.97;2242497;78;50234;-76
2023/07/12 09:50:40;;;;;;;;;;;;;;;27.72;44.48;100147.17;2282450;78;51681;-75
2023/07/12 09:53:43;;;;;;;;;;;;;;;27.74;44.40;100148.56;2260887;78;52562;-76
2023/07/12 09:56:48;;;;;;;;;;;;;;;27.75;44.58;100156.20;2282402;76;50165;-76
2023/07/12 09:59:51;;;;;;;;;;;;;;;27.79;44.69;100169.00;2282656;78;50367;-77
2023/07/12 10:02:58;;;;;;;;;;;;;;;27.80;44.94;100173.38;2261247;78;50695;-76
2023/07/12 10:06:06;;;;;;;;;;;;;;;27.73;45.24;100182.27;2259340;78;50963;-78
2023/07/12 10:09:12;;;;;;;;;;;;;;;27.70;45.10;100184.69;2160334;81;21960;-75
2023/07/12 10:12:24;;;;;;;;;;;;;;;27.67;45.19;100200.97;2161606;81;50684;-77
2023/07/12 10:15:26;;;;;;;;;;;;;;;27.70;45.05;100195.02;2176225;81;51449;-76
2023/07/12 10:18:28;;;;;;;;;;;;;;;27.75;44.88;100193.72;2142154;81;51028;-77
2023/07/12 10:21:31;;;;;;;;;;;;;;;27.77;44.97;100202.95;2150791;81;51410;-77
2023/07/12 10:24:36;;;;;;;;;;;;;;;27.75;45.11;100205.13;2172460;81;50803;-77
2023/07/12 10:27:38;;;;;;;;;;;;;;;27.61;45.51;100207.95;2179497;81;51477;-76
2023/07/12 10:30:40;;;;;;;;;;;;;;;27.63;45.42;100211.24;2156304;81;49975;-77
2023/07/12 10:33:43;;;;;;;;;;;;;;;27.68;45.28;100209.40;2210712;80;50820;-77
2023/07/12 10:36:44;;;;;;;;;;;;;;;27.65;45.37;100214.53;2211669;79;51105;-76
2023/07/12 10:39:46;;;;;;;;;;;;;;;27.62;45.43;100219.09;2213665;80;50244;-77
2023/07/12 10:42:53;;;;;;;;;;;;;;;27.55;44.89;100213.87;2189606;80;50755;-76
2023/07/12 10:45:56;;;;;;;;;;;;;;;27.44;44.99;100215.65;2222495;79;51844;-78
2023/07/12 10:48:59;;;;;;;;;;;;;;;27.47;44.98;100213.78;2275641;78;50676;-78
2023/07/12 10:52:15;;;;;;;;;;;;;;;27.50;44.70;100218.70;2230270;79;50664;-78
2023/07/12 10:55:18;;;;;;;;;;;;;;;27.51;44.54;100227.16;2275110;78;21775;-77
2023/07/12 10:58:21;;;;;;;;;;;;;;;27.53;44.11;100227.70;2240096;79;50800;-77
2023/07/12 11:01:38;;;;;;;;;;;;;;;27.48;44.22;100223.56;2233822;79;50292;-77
2023/07/12 11:04:46;;;;;;;;;;;;;;;27.67;43.54;100238.18;2240036;79;51545;-77
2023/07/12 11:07:48;;;;;;;;;;;;;;;27.84;42.85;100234.88;2219071;79;51212;-75
2023/07/12 11:10:49;;;;;;;;;;;;;;;27.87;42.49;100239.80;2240091;78;50774;-75
2023/07/12 11:13:52;;;;;;;;;;;;;;;27.80;42.67;100243.25;2297314;77;52495;-78
2023/07/12 11:17:05;;;;;;;;;;;;;;;27.90;42.46;100250.20;2296922;77;51632;-76
2023/07/12 11:20:09;;;;;;;;;;;;;;;27.88;42.11;100244.19;2266389;77;51219;-76
2023/07/12 11:23:29;;;;;;;;;;;;;;;27.82;42.23;100241.65;2297349;77;50424;-77
2023/07/12 11:26:33;;;;;;;;;;;;;;;27.79;42.01;100249.75;2297123;77;51620;-76
2023/07/12 11:29:35;;;;;;;;;;;;;;;27.86;41.74;100246.87;2297355;77;51509;-76
2023/07/12 11:32:38;;;;;;;;;;;;;;;27.94;41.31;100243.15;2265956;77;51037;-76
2023/07/12 11:35:44;;;;;;;;;;;;;;;27.61;41.44;100241.38;2274979;78;50337;-77
2023/07/12 11:38:46;;;;;;;;;;;;;;;27.56;40.88;100247.57;2274140;78;51611;-75
2023/07/12 11:41:54;;;;;;;;;;;;;;;27.52;40.47;100251.89;2274524;78;51489;-74
2023/07/12 11:45:00;;;;;;;;;;;;;;;27.46;40.29;100245.27;2252723;78;51747;-77
2023/07/12 11:48:01;;;;;;;;;;;;;;;27.52;39.89;100232.86;2274394;78;51559;-76
2023/07/12 11:51:05;;;;;;;;;;;;;;;27.51;39.98;100247.53;2253558;78;51402;-77
2023/07/12 11:54:14;;;;;;;;;;;;;;;27.46;40.13;100239.83;2274246;78;50712;-77
2023/07/12 11:57:15;;;;;;;;;;;;;;;27.53;39.99;100245.36;2242883;78;52996;-77
2023/07/12 12:00:21;;;;;;;;;;;;;;;27.56;40.06;100235.34;2257788;77;50695;-75
2023/07/12 12:03:23;;;;;;;;;;;;;;;27.49;40.49;100236.09;2250608;78;50660;-75
2023/07/12 12:06:25;;;;;;;;;;;;;;;27.49;41.07;100237.45;2265957;76;49864;-77
2023/07/12 12:09:28;;;;;;;;;;;;;;;27.50;40.97;100241.80;2252104;78;51482;-78
2023/07/12 12:12:30;;;;;;;;;;;;;;;27.51;41.10;100252.97;2239246;79;51533;-78
2023/07/12 12:15:32;;;;;;;;;;;;;;;27.54;41.08;100255.18;2267089;76;50712;-77
2023/07/12 12:18:35;;;;;;;;;;;;;;;27.56;41.28;100262.52;2256014;78;51532;-77
2023/07/12 12:21:38;;;;;;;;;;;;;;;27.58;41.35;100258.20;2247754;77;52595;-79
2023/07/12 12:24:41;;;;;;;;;;;;;;;27.59;41.39;100262.55;2275076;76;51427;-76
2023/07/12 12:27:43;;;;;;;;;;;;;;;27.62;41.45;100256.63;2263382;78;51402;-77
2023/07/12 12:30:46;;;;;;;;;;;;;;;27.64;41.51;100257.72;2270944;76;50527;-77
2023/07/12 12:33:50;;;;;;;;;;;;;;;27.65;41.42;100261.56;2223948;79;51521;-77
2023/07/12 12:37:08;;;;;;;;;;;;;;;27.65;41.50;100272.43;2267496;78;51476;-79
2023/07/12 12:40:21;;;;;;;;;;;;;;;27.67;41.60;100262.12;2270483;78;51698;-78
2023/07/12 12:43:20;;;;;;;;;;;;;;;27.68;41.63;100277.36;2264575;78;21819;-79
2023/07/12 12:46:21;;;;;;;;;;;;;;;27.70;41.81;100268.96;2257362;78;51117;-78
2023/07/12 12:49:30;;;;;;;;;;;;;;;27.72;41.61;100268.14;2258638;78;51495;-78
2023/07/12 12:52:37;;;;;;;;;;;;;;;27.73;41.70;100281.49;2270885;78;50289;-79
2023/07/12 12:55:40;;;;;;;;;;;;;;;27.73;41.71;100285.58;2265982;78;22285;-77
2023/07/12 12:58:39;;;;;;;;;;;;;;;27.74;41.71;100288.56;2245313;78;22481;-77
2023/07/12 13:01:40;;;;;;;;;;;;;;;27.74;41.54;100302.70;2267168;78;50714;-78
2023/07/12 13:04:42;;;;;;;;;;;;;;;27.76;41.51;100298.66;2279171;78;50211;-77
2023/07/12 13:07:44;;;;;;;;;;;;;;;27.75;41.35;100294.84;2278945;78;51474;-76
2023/07/12 13:10:45;;;;;;;;;;;;;;;27.77;41.23;100297.59;2257114;78;50135;-76
2023/07/12 13:13:47;;;;;;;;;;;;;;;27.75;41.15;100280.71;2256890;78;50406;-77
2023/07/12 13:16:49;;;;;;;;;;;;;;;27.74;40.98;100283.12;2256719;78;50244;-77
2023/07/12 13:19:51;;;;;;;;;;;;;;;27.76;40.90;100291.04;2278774;78;50729;-77
2023/07/12 13:22:52;;;;;;;;;;;;;;;27.74;40.87;100292.64;2257681;78;51208;-78
2023/07/12 13:25:54;;;;;;;;;;;;;;;27.74;40.81;100287.20;2259448;78;50297;-77
2023/07/12 13:28:56;;;;;;;;;;;;;;;27.74;40.71;100288.56;2271178;78;50353;-77
2023/07/12 13:31:57;;;;;;;;;;;;;;;27.74;40.63;100304.06;2270572;78;50387;-78
2023/07/12 13:34:59;;;;;;;;;;;;;;;27.73;40.58;100293.73;2257452;78;51122;-77
2023/07/12 13:38:00;;;;;;;;;;;;;;;27.75;40.45;100290.77;2257585;78;50680;-76
2023/07/12 13:41:02;;;;;;;;;;;;;;;27.74;40.36;100288.56;2257733;78;50405;-76
2023/07/12 13:44:04;;;;;;;;;;;;;;;27.75;40.28;100308.44;2257623;78;50190;-77
2023/07/12 13:47:16;;;;;;;;;;;;;;;27.74;40.25;100302.16;2257486;78;51639;-79
2023/07/12 13:50:18;;;;;;;;;;;;;;;27.84;38.73;100293.88;2279459;78;50349;-78
2023/07/12 13:53:20;;;;;;;;;;;;;;;27.71;36.61;100290.44;2258050;78;51458;-79
2023/07/12 13:56:21;;;;;;;;;;;;;;;27.72;36.16;100289.38;2257897;78;51435;-78
2023/07/12 13:59:23;;;;;;;;;;;;;;;27.60;36.02;100298.73;2266317;78;51411;-79
2023/07/12 14:02:25;;;;;;;;;;;;;;;27.65;36.32;100297.44;2225286;79;51538;-78
2023/07/12 14:05:27;;;;;;;;;;;;;;;27.76;36.26;100300.55;2244226;79;50647;-79
2023/07/12 14:08:29;;;;;;;;;;;;;;;27.61;35.81;100307.16;2243703;79;50797;-77
2023/07/12 14:11:34;;;;;;;;;;;;;;;27.63;35.86;100302.30;2224061;79;52368;-79
2023/07/12 14:14:36;;;;;;;;;;;;;;;27.70;36.11;100298.31;2247072;79;50793;-79
2023/07/12 14:17:39;;;;;;;;;;;;;;;27.69;36.69;100298.56;2248278;79;51471;-78
2023/07/12 14:20:41;;;;;;;;;;;;;;;27.73;36.73;100296.99;2244649;79;50815;-73
2023/07/12 14:23:45;;;;;;;;;;;;;;;27.91;34.97;100292.62;2247417;78;51466;-78
2023/07/12 14:26:47;;;;;;;;;;;;;;;27.95;34.91;100298.36;2246727;78;50642;-77
2023/07/12 14:29:52;;;;;;;;;;;;;;;27.84;34.95;100301.50;2244971;79;51517;-77
2023/07/12 14:32:54;;;;;;;;;;;;;;;27.85;35.39;100307.23;2245339;78;50709;-81
2023/07/12 14:35:56;;;;;;;;;;;;;;;27.87;35.41;100309.14;2224143;79;51006;-79
2023/07/12 14:38:58;;;;;;;;;;;;;;;27.82;35.14;100310.98;2224365;79;52136;-75
2023/07/12 14:41:59;;;;;;;;;;;;;;;27.79;35.65;100319.89;2244760;79;51512;-78
2023/07/12 14:45:01;;;;;;;;;;;;;;;27.85;35.68;100311.32;2245465;78;51486;-77
2023/07/12 14:48:04;;;;;;;;;;;;;;;27.73;36.25;100309.22;2225358;79;50903;-80
2023/07/12 14:51:07;;;;;;;;;;;;;;;27.66;36.34;100310.76;2225782;79;50663;-80
2023/07/12 14:54:11;;;;;;;;;;;;;;;27.74;35.63;100313.58;2261771;78;51521;-79
2023/07/12 14:57:12;;;;;;;;;;;;;;;27.74;35.41;100319.83;2283760;78;50774;-80
2023/07/12 15:00:15;;;;;;;;;;;;;;;27.61;36.17;100327.55;2261343;78;49836;-80
2023/07/12 15:03:19;;;;;;;;;;;;;;;27.61;36.18;100324.83;2254205;78;50798;-78
2023/07/12 15:06:21;;;;;;;;;;;;;;;27.67;36.18;100321.09;2281640;78;51659;-78
2023/07/12 15:09:22;;;;;;;;;;;;;;;27.63;36.02;100317.25;2282575;78;51507;-79
2023/07/12 15:12:34;;;;;;;;;;;;;;;27.51;35.42;100312.76;2235916;78;51663;-79
2023/07/12 15:15:38;;;;;;;;;;;;;;;27.48;35.80;100320.57;2282543;76;51482;-80
2023/07/12 15:18:39;;;;;;;;;;;;;;;27.56;35.71;100315.52;2282515;78;50670;-80
2023/07/12 15:21:41;;;;;;;;;;;;;;;27.48;35.58;100333.62;2261247;78;50650;-77
2023/07/12 15:24:43;;;;;;;;;;;;;;;27.57;35.39;100329.41;2228604;79;52417;-79
2023/07/12 15:27:45;;;;;;;;;;;;;;;27.45;35.58;100313.74;2224145;79;51473;-78
2023/07/12 15:30:47;;;;;;;;;;;;;;;27.46;35.88;100328.99;2244216;79;50689;-78
2023/07/12 15:33:48;;;;;;;;;;;;;;;27.45;35.47;100326.52;2279632;78;50658;-78
2023/07/12 15:36:50;;;;;;;;;;;;;;;27.47;35.21;100331.17;2259078;78;50615;-79
2023/07/12 15:39:52;;;;;;;;;;;;;;;27.53;35.17;100328.80;2259484;78;50331;-77
2023/07/12 15:42:54;;;;;;;;;;;;;;;27.44;35.55;100328.41;2281519;78;50272;-76